Time,TemperatureF,DewpointF,PressureIn,WindDirection,WindDirectionDegrees,WindSpeedMPH,WindSpeedGustMPH,Humidity,HourlyPrecipIn,Conditions,Clouds,dailyrainin,SoftwareType,DateUTC
2013-02-07 00:07:00,26.2,18.0,30.13,North,355,4.0,5.0,72,0.00,,,0.00,weatherlink.com 1.10,2013-02-07 08:07:00,
2013-02-07 00:22:00,26.3,19.0,30.14,North,355,2.0,4.0,73,0.00,,,0.00,weatherlink.com 1.10,2013-02-07 08:22:00,
2013-02-07 00:37:00,26.3,21.0,30.14,North,355,4.0,5.0,79,0.00,,,0.00,weatherlink.com 1.10,2013-02-07 08:37:00,
2013-02-07 00:52:00,27.4,21.0,30.14,North,355,3.0,4.0,76,0.00,,,0.00,weatherlink.com 1.10,2013-02-07 08:52:00,
2013-02-07 01:07:00,26.8,21.0,30.14,North,355,2.0,3.0,79,0.00,,,0.00,weatherlink.com 1.10,2013-02-07 09:07:00,
2013-02-07 01:22:00,26.0,21.0,30.14,North,355,4.0,5.0,81,0.00,,,0.00,weatherlink.com 1.10,2013-02-07 09:22:00,
2013-02-07 01:37:00,26.4,22.0,30.14,North,355,4.0,5.0,84,0.00,,,0.00,weatherlink.com 1.10,2013-02-07 09:37:00,
2013-02-07 01:52:00,26.3,22.0,30.14,North,355,3.0,5.0,84,0.00,,,0.00,weatherlink.com 1.10,2013-02-07 09:52:00,
2013-02-07 02:07:00,26.3,22.0,30.14,North,355,4.0,5.0,84,0.00,,,0.00,weatherlink.com 1.10,2013-02-07 10:07:00,
2013-02-07 02:22:00,26.4,22.0,30.14,North,355,3.0,4.0,84,0.00,,,0.00,weatherlink.com 1.10,2013-02-07 10:22:00,
2013-02-07 02:37:00,26.5,23.0,30.14,North,355,3.0,4.0,86,0.00,,,0.00,weatherlink.com 1.10,2013-02-07 10:37:00,
2013-02-07 02:52:00,26.7,23.0,30.14,North,355,3.0,4.0,87,0.00,,,0.00,weatherlink.com 1.10,2013-02-07 10:52:00,
2013-02-07 03:07:00,27.0,23.0,30.14,North,355,4.0,4.0,84,0.00,,,0.00,weatherlink.com 1.10,2013-02-07 11:07:00,
2013-02-07 03:22:00,26.5,22.0,30.14,North,355,4.0,5.0,82,0.00,,,0.00,weatherlink.com 1.10,2013-02-07 11:22:00,
2013-02-07 03:37:00,26.0,21.0,30.14,North,355,4.0,5.0,82,0.00,,,0.00,weatherlink.com 1.10,2013-02-07 11:37:00,
2013-02-07 03:52:00,26.0,21.0,30.14,North,355,4.0,4.0,81,0.00,,,0.00,weatherlink.com 1.10,2013-02-07 11:52:00,
2013-02-07 04:07:00,26.6,21.0,30.13,North,355,3.0,4.0,80,0.00,,,0.00,weatherlink.com 1.10,2013-02-07 12:07:00,
2013-02-07 04:22:00,26.7,20.0,30.14,North,355,4.0,4.0,75,0.00,,,0.00,weatherlink.com 1.10,2013-02-07 12:22:00,
2013-02-07 04:37:00,26.3,17.0,30.14,North,355,3.0,4.0,69,0.00,,,0.00,weatherlink.com 1.10,2013-02-07 12:37:00,
2013-02-07 04:52:00,25.9,16.0,30.14,North,355,3.0,4.0,66,0.00,,,0.00,weatherlink.com 1.10,2013-02-07 12:52:00,
2013-02-07 05:07:00,25.7,15.0,30.15,North,355,3.0,4.0,63,0.00,,,0.00,weatherlink.com 1.10,2013-02-07 13:07:00,
2013-02-07 05:22:00,25.5,14.0,30.15,North,355,3.0,4.0,61,0.00,,,0.00,weatherlink.com 1.10,2013-02-07 13:22:00,
2013-02-07 05:37:00,25.0,14.0,30.15,North,355,4.0,5.0,62,0.00,,,0.00,weatherlink.com 1.10,2013-02-07 13:37:00,
2013-02-07 05:52:00,24.8,14.0,30.16,North,355,3.0,5.0,63,0.00,,,0.00,weatherlink.com 1.10,2013-02-07 13:52:00,
2013-02-07 06:07:00,24.5,14.0,30.16,North,355,4.0,5.0,64,0.00,,,0.00,weatherlink.com 1.10,2013-02-07 14:07:00,
2013-02-07 06:23:00,24.6,14.0,30.16,North,355,5.0,5.0,64,0.00,,,0.00,weatherlink.com 1.10,2013-02-07 14:23:00,
2013-02-07 06:38:00,24.9,13.0,30.17,North,355,3.0,4.0,62,0.00,,,0.00,weatherlink.com 1.10,2013-02-07 14:38:00,
2013-02-07 06:53:00,25.4,13.0,30.17,North,355,2.0,4.0,59,0.00,,,0.00,weatherlink.com 1.10,2013-02-07 14:53:00,
2013-02-07 07:08:00,26.5,13.0,30.18,North,355,2.0,3.0,56,0.00,,,0.00,weatherlink.com 1.10,2013-02-07 15:08:00,
2013-02-07 07:23:00,28.0,12.0,30.18,North,355,2.0,3.0,51,0.00,,,0.00,weatherlink.com 1.10,2013-02-07 15:23:00,
2013-02-07 07:38:00,31.2,13.0,30.19,North,355,0.0,2.0,47,0.00,,,0.00,weatherlink.com 1.10,2013-02-07 15:38:00,
2013-02-07 07:53:00,37.3,18.0,30.19,North,355,0.0,2.0,46,0.00,,,0.00,weatherlink.com 1.10,2013-02-07 15:53:00,
2013-02-07 08:08:00,43.9,18.0,30.20,North,355,2.0,2.0,35,0.00,,,0.00,weatherlink.com 1.10,2013-02-07 16:08:00,
2013-02-07 08:23:00,49.1,14.0,30.20,West,271,2.0,5.0,24,0.00,,,0.00,weatherlink.com 1.10,2013-02-07 16:23:00,
2013-02-07 08:38:00,49.6,16.0,30.20,West,275,1.0,6.0,26,0.00,,,0.00,weatherlink.com 1.10,2013-02-07 16:38:00,
2013-02-07 08:53:00,50.7,14.0,30.20,SSW,192,3.0,5.0,23,0.00,,,0.00,weatherlink.com 1.10,2013-02-07 16:53:00,
2013-02-07 09:08:00,52.2,13.0,30.21,WSW,240,1.0,5.0,21,0.00,,,0.00,weatherlink.com 1.10,2013-02-07 17:08:00,
2013-02-07 09:23:00,53.2,12.0,30.20,WSW,250,2.0,5.0,19,0.00,,,0.00,weatherlink.com 1.10,2013-02-07 17:23:00,
2013-02-07 09:38:00,53.2,13.0,30.21,WSW,246,3.0,7.0,20,0.00,,,0.00,weatherlink.com 1.10,2013-02-07 17:38:00,
2013-02-07 09:53:00,54.2,13.0,30.20,WSW,241,3.0,8.0,19,0.00,,,0.00,weatherlink.com 1.10,2013-02-07 17:53:00,
2013-02-07 10:08:00,55.0,14.0,30.20,West,261,11.0,11.0,20,0.00,,,0.00,weatherlink.com 1.10,2013-02-07 18:08:00,
2013-02-07 10:23:00,55.4,16.0,30.20,West,269,5.0,12.0,21,0.00,,,0.00,weatherlink.com 1.10,2013-02-07 18:23:00,
2013-02-07 10:38:00,55.0,17.0,30.20,West,279,4.0,10.0,22,0.00,,,0.00,weatherlink.com 1.10,2013-02-07 18:38:00,
2013-02-07 10:53:00,55.9,16.0,30.19,South,187,5.0,12.0,21,0.00,,,0.00,weatherlink.com 1.10,2013-02-07 18:53:00,
2013-02-07 11:08:00,55.3,16.0,30.19,SSW,205,1.0,10.0,21,0.00,,,0.00,weatherlink.com 1.10,2013-02-07 19:08:00,
2013-02-07 11:23:00,55.7,24.0,30.18,South,182,11.0,12.0,29,0.00,,,0.00,weatherlink.com 1.10,2013-02-07 19:23:00,
2013-02-07 11:38:00,56.2,23.0,30.17,WSW,258,4.0,12.0,28,0.00,,,0.00,weatherlink.com 1.10,2013-02-07 19:38:00,
2013-02-07 11:53:00,57.7,24.0,30.16,SW,215,11.0,14.0,27,0.00,,,0.00,weatherlink.com 1.10,2013-02-07 19:53:00,
2013-02-07 12:08:00,56.6,23.0,30.16,SW,217,7.0,12.0,27,0.00,,,0.00,weatherlink.com 1.10,2013-02-07 20:08:00,
2013-02-07 14:54:00,54.4,32.0,30.11,West,273,7.0,12.0,42,0.00,,,0.00,weatherlink.com 1.10,2013-02-07 22:54:00,
2013-02-07 15:09:00,53.2,33.0,30.10,WNW,285,4.0,11.0,46,0.00,,,0.00,weatherlink.com 1.10,2013-02-07 23:09:00,
2013-02-07 15:24:00,52.5,31.0,30.09,WNW,298,6.0,10.0,44,0.00,,,0.00,weatherlink.com 1.10,2013-02-07 23:24:00,
2013-02-07 15:39:00,53.0,32.0,30.09,West,269,2.0,11.0,45,0.00,,,0.00,weatherlink.com 1.10,2013-02-07 23:39:00,
2013-02-07 15:54:00,52.7,29.0,30.09,WSW,246,3.0,8.0,40,0.00,,,0.00,weatherlink.com 1.10,2013-02-07 23:54:00,
2013-02-07 16:09:00,51.9,31.0,30.08,SW,229,2.0,9.0,45,0.00,,,0.00,weatherlink.com 1.10,2013-02-08 00:09:00,
2013-02-07 16:24:00,51.6,32.0,30.08,WSW,252,3.0,8.0,47,0.00,,,0.00,weatherlink.com 1.10,2013-02-08 00:24:00,
2013-02-07 16:39:00,49.6,32.0,30.08,WSW,255,5.0,9.0,51,0.00,,,0.00,weatherlink.com 1.10,2013-02-08 00:39:00,
2013-02-07 16:54:00,46.9,30.0,30.07,SSW,206,5.0,9.0,53,0.00,,,0.00,weatherlink.com 1.10,2013-02-08 00:54:00,
2013-02-07 17:09:00,43.8,29.0,30.07,WSW,251,2.0,9.0,57,0.00,,,0.00,weatherlink.com 1.10,2013-02-08 01:09:00,
2013-02-07 17:24:00,41.7,27.0,30.07,WSW,249,1.0,8.0,57,0.00,,,0.00,weatherlink.com 1.10,2013-02-08 01:24:00,
2013-02-07 17:39:00,40.1,29.0,30.07,WSW,239,3.0,6.0,64,0.00,,,0.00,weatherlink.com 1.10,2013-02-08 01:39:00,
2013-02-07 17:54:00,38.7,27.0,30.07,WSW,255,1.0,4.0,62,0.00,,,0.00,weatherlink.com 1.10,2013-02-08 01:54:00,
2013-02-07 18:09:00,37.4,27.0,30.07,WSW,238,1.0,6.0,66,0.00,,,0.00,weatherlink.com 1.10,2013-02-08 02:09:00,
2013-02-07 18:24:00,37.1,29.0,30.06,SW,217,2.0,6.0,72,0.00,,,0.00,weatherlink.com 1.10,2013-02-08 02:24:00,
2013-02-07 18:39:00,37.3,30.0,30.06,West,272,3.0,12.0,74,0.00,,,0.00,weatherlink.com 1.10,2013-02-08 02:39:00,
2013-02-07 18:54:00,36.8,30.0,30.05,SSW,213,2.0,6.0,76,0.00,,,0.00,weatherlink.com 1.10,2013-02-08 02:54:00,
2013-02-07 19:09:00,36.3,29.0,30.05,WSW,256,1.0,6.0,76,0.00,,,0.00,weatherlink.com 1.10,2013-02-08 03:09:00,
2013-02-07 19:24:00,36.3,28.0,30.05,NW,313,5.0,10.0,71,0.00,,,0.00,weatherlink.com 1.10,2013-02-08 03:24:00,
2013-02-07 19:39:00,36.1,26.0,30.04,West,263,1.0,9.0,67,0.00,,,0.00,weatherlink.com 1.10,2013-02-08 03:39:00,
2013-02-07 19:54:00,36.0,26.0,30.04,SSW,211,1.0,8.0,68,0.00,,,0.00,weatherlink.com 1.10,2013-02-08 03:54:00,
2013-02-07 20:09:00,35.4,27.0,30.03,SW,228,2.0,5.0,72,0.00,,,0.00,weatherlink.com 1.10,2013-02-08 04:09:00,
2013-02-07 20:24:00,35.5,26.0,30.03,SW,230,2.0,11.0,69,0.00,,,0.00,weatherlink.com 1.10,2013-02-08 04:24:00,
2013-02-07 20:39:00,35.1,25.0,30.03,West,273,2.0,9.0,68,0.00,,,0.00,weatherlink.com 1.10,2013-02-08 04:39:00,
2013-02-07 20:54:00,35.3,25.0,30.02,SW,227,6.0,12.0,66,0.00,,,0.00,weatherlink.com 1.10,2013-02-08 04:54:00,
2013-02-07 21:09:00,34.6,27.0,30.02,SSW,212,2.0,10.0,74,0.00,,,0.00,weatherlink.com 1.10,2013-02-08 05:09:00,
2013-02-07 21:24:00,33.7,26.0,30.01,WSW,245,4.0,11.0,74,0.00,,,0.00,weatherlink.com 1.10,2013-02-08 05:24:00,
2013-02-07 21:39:00,34.0,23.0,30.01,SW,225,3.0,13.0,65,0.00,,,0.00,weatherlink.com 1.10,2013-02-08 05:39:00,
2013-02-07 21:54:00,32.9,27.0,30.01,SW,236,12.0,12.0,80,0.00,,,0.00,weatherlink.com 1.10,2013-02-08 05:54:00,
2013-02-07 22:09:00,31.6,29.0,30.00,WSW,243,5.0,14.0,90,0.00,,,0.00,weatherlink.com 1.10,2013-02-08 06:09:00,
2013-02-07 22:24:00,31.2,28.0,30.00,WSW,246,3.0,15.0,88,0.00,,,0.00,weatherlink.com 1.10,2013-02-08 06:24:00,
2013-02-07 22:39:00,31.5,27.0,29.98,WSW,248,8.0,14.0,82,0.00,,,0.00,weatherlink.com 1.10,2013-02-08 06:39:00,
2013-02-07 22:54:00,31.1,28.0,29.98,SW,220,5.0,13.0,87,0.00,,,0.00,weatherlink.com 1.10,2013-02-08 06:54:00,
2013-02-07 23:09:00,30.3,28.0,29.99,West,280,8.0,13.0,91,0.00,,,0.00,weatherlink.com 1.10,2013-02-08 07:09:00,
2013-02-07 23:24:00,30.4,29.0,29.98,WSW,248,3.0,17.0,93,0.00,,,0.00,weatherlink.com 1.10,2013-02-08 07:24:00,
2013-02-07 23:39:00,30.2,29.0,29.98,West,261,14.0,18.0,94,0.00,,,0.00,weatherlink.com 1.10,2013-02-08 07:39:00,
2013-02-07 23:54:00,30.1,29.0,29.97,West,277,15.0,21.0,95,0.00,,,0.00,weatherlink.com 1.10,2013-02-08 07:54:00,